sensor_id;sensor_type;location;lat;lon;timestamp;P1;durP1;ratioP1;P2;durP2;ratioP2
63693;SDS011;49839;51.798;10.954;2023-03-13T00:02:26;14.88;;;3.30;;
63693;SDS011;49839;51.798;10.954;2023-03-13T00:04:54;13.07;;;2.80;;
63693;SDS011;49839;51.798;10.954;2023-03-13T00:07:23;17.50;;;2.78;;
63693;SDS011;49839;51.798;10.954;2023-03-13T00:09:50;10.35;;;2.28;;
63693;SDS011;49839;51.798;10.954;2023-03-13T00:12:18;16.08;;;2.75;;
63693;SDS011;49839;51.798;10.954;2023-03-13T00:14:45;14.73;;;2.70;;
63693;SDS011;49839;51.798;10.954;2023-03-13T00:17:13;13.35;;;2.35;;
63693;SDS011;49839;51.798;10.954;2023-03-13T00:19:40;12.52;;;2.58;;
63693;SDS011;49839;51.798;10.954;2023-03-13T00:22:08;13.73;;;3.10;;
63693;SDS011;49839;51.798;10.954;2023-03-13T00:24:36;16.42;;;2.85;;
63693;SDS011;49839;51.798;10.954;2023-03-13T00:29:32;13.52;;;3.10;;
63693;SDS011;49839;51.798;10.954;2023-03-13T00:32:00;12.80;;;2.42;;
63693;SDS011;49839;51.798;10.954;2023-03-13T00:34:27;15.43;;;3.08;;
63693;SDS011;49839;51.798;10.954;2023-03-13T00:36:55;9.50;;;2.28;;
63693;SDS011;49839;51.798;10.954;2023-03-13T00:39:22;12.38;;;2.58;;
63693;SDS011;49839;51.798;10.954;2023-03-13T00:41:51;16.50;;;2.70;;
63693;SDS011;49839;51.798;10.954;2023-03-13T00:44:18;16.55;;;3.25;;
63693;SDS011;49839;51.798;10.954;2023-03-13T00:46:46;11.48;;;2.25;;
63693;SDS011;49839;51.798;10.954;2023-03-13T00:49:13;14.40;;;2.72;;
63693;SDS011;49839;51.798;10.954;2023-03-13T00:51:41;14.02;;;2.47;;
63693;SDS011;49839;51.798;10.954;2023-03-13T00:54:08;12.07;;;2.60;;
63693;SDS011;49839;51.798;10.954;2023-03-13T00:56:36;17.75;;;3.13;;
63693;SDS011;49839;51.798;10.954;2023-03-13T00:59:04;12.27;;;2.20;;
63693;SDS011;49839;51.798;10.954;2023-03-13T01:01:32;16.90;;;2.40;;
63693;SDS011;49839;51.798;10.954;2023-03-13T01:04:01;14.63;;;3.40;;
63693;SDS011;49839;51.798;10.954;2023-03-13T01:06:29;16.33;;;3.33;;
63693;SDS011;49839;51.798;10.954;2023-03-13T01:08:58;10.87;;;2.60;;
63693;SDS011;49839;51.798;10.954;2023-03-13T01:11:26;13.18;;;2.75;;
63693;SDS011;49839;51.798;10.954;2023-03-13T01:13:56;17.73;;;2.85;;
63693;SDS011;49839;51.798;10.954;2023-03-13T01:16:25;15.40;;;2.75;;
63693;SDS011;49839;51.798;10.954;2023-03-13T01:18:54;12.85;;;2.65;;
63693;SDS011;49839;51.798;10.954;2023-03-13T01:21:22;12.25;;;2.47;;
63693;SDS011;49839;51.798;10.954;2023-03-13T01:23:51;12.30;;;2.33;;
63693;SDS011;49839;51.798;10.954;2023-03-13T01:26:18;15.18;;;2.33;;
63693;SDS011;49839;51.798;10.954;2023-03-13T01:28:46;14.80;;;2.85;;
63693;SDS011;49839;51.798;10.954;2023-03-13T01:31:15;15.48;;;2.60;;
63693;SDS011;49839;51.798;10.954;2023-03-13T01:33:45;17.02;;;2.20;;
63693;SDS011;49839;51.798;10.954;2023-03-13T01:36:13;18.50;;;3.15;;
63693;SDS011;49839;51.798;10.954;2023-03-13T01:38:41;17.48;;;2.30;;
63693;SDS011;49839;51.798;10.954;2023-03-13T01:41:10;16.15;;;2.15;;
63693;SDS011;49839;51.798;10.954;2023-03-13T01:43:37;16.15;;;2.95;;
63693;SDS011;49839;51.798;10.954;2023-03-13T01:46:12;15.77;;;2.67;;
63693;SDS011;49839;51.798;10.954;2023-03-13T01:48:42;20.52;;;2.97;;
63693;SDS011;49839;51.798;10.954;2023-03-13T01:51:13;14.57;;;2.97;;
63693;SDS011;49839;51.798;10.954;2023-03-13T01:53:43;19.65;;;3.08;;
63693;SDS011;49839;51.798;10.954;2023-03-13T01:56:13;13.05;;;2.70;;
63693;SDS011;49839;51.798;10.954;2023-03-13T01:58:43;12.15;;;2.55;;
63693;SDS011;49839;51.798;10.954;2023-03-13T02:01:10;16.35;;;2.28;;
63693;SDS011;49839;51.798;10.954;2023-03-13T02:03:39;11.18;;;2.88;;
63693;SDS011;49839;51.798;10.954;2023-03-13T02:06:06;14.32;;;2.60;;
63693;SDS011;49839;51.798;10.954;2023-03-13T02:08:36;12.25;;;2.40;;
63693;SDS011;49839;51.798;10.954;2023-03-13T02:13:31;17.17;;;2.97;;
63693;SDS011;49839;51.798;10.954;2023-03-13T02:15:58;10.30;;;2.30;;
63693;SDS011;49839;51.798;10.954;2023-03-13T02:18:27;19.90;;;2.80;;
63693;SDS011;49839;51.798;10.954;2023-03-13T02:20:55;18.35;;;2.40;;
63693;SDS011;49839;51.798;10.954;2023-03-13T02:23:26;11.77;;;2.28;;
63693;SDS011;49839;51.798;10.954;2023-03-13T02:25:59;12.95;;;2.05;;
63693;SDS011;49839;51.798;10.954;2023-03-13T02:28:27;12.13;;;2.60;;
63693;SDS011;49839;51.798;10.954;2023-03-13T02:30:58;11.18;;;1.75;;
63693;SDS011;49839;51.798;10.954;2023-03-13T02:33:26;14.38;;;2.50;;
63693;SDS011;49839;51.798;10.954;2023-03-13T02:35:55;12.77;;;3.03;;
63693;SDS011;49839;51.798;10.954;2023-03-13T02:38:23;9.77;;;2.03;;
63693;SDS011;49839;51.798;10.954;2023-03-13T02:40:51;14.43;;;2.63;;
63693;SDS011;49839;51.798;10.954;2023-03-13T02:43:22;14.95;;;2.38;;
63693;SDS011;49839;51.798;10.954;2023-03-13T02:46:03;13.55;;;2.10;;
63693;SDS011;49839;51.798;10.954;2023-03-13T02:48:32;14.73;;;2.50;;
63693;SDS011;49839;51.798;10.954;2023-03-13T02:51:00;13.82;;;2.30;;
63693;SDS011;49839;51.798;10.954;2023-03-13T02:53:28;18.38;;;2.92;;
63693;SDS011;49839;51.798;10.954;2023-03-13T02:55:56;12.93;;;1.98;;
63693;SDS011;49839;51.798;10.954;2023-03-13T02:58:25;12.48;;;1.95;;
63693;SDS011;49839;51.798;10.954;2023-03-13T03:00:52;11.07;;;2.20;;
63693;SDS011;49839;51.798;10.954;2023-03-13T03:03:20;11.75;;;2.30;;
63693;SDS011;49839;51.798;10.954;2023-03-13T03:05:47;12.82;;;2.95;;
63693;SDS011;49839;51.798;10.954;2023-03-13T03:08:15;11.27;;;2.13;;
63693;SDS011;49839;51.798;10.954;2023-03-13T03:10:42;14.18;;;3.05;;
63693;SDS011;49839;51.798;10.954;2023-03-13T03:13:10;8.25;;;2.30;;
63693;SDS011;49839;51.798;10.954;2023-03-13T03:15:38;14.35;;;2.38;;
63693;SDS011;49839;51.798;10.954;2023-03-13T03:18:06;16.35;;;2.50;;
63693;SDS011;49839;51.798;10.954;2023-03-13T03:20:33;16.10;;;2.05;;
63693;SDS011;49839;51.798;10.954;2023-03-13T03:23:01;14.35;;;2.38;;
63693;SDS011;49839;51.798;10.954;2023-03-13T03:25:28;15.57;;;2.40;;
63693;SDS011;49839;51.798;10.954;2023-03-13T03:27:55;13.30;;;3.83;;
63693;SDS011;49839;51.798;10.954;2023-03-13T03:30:23;12.63;;;2.90;;
63693;SDS011;49839;51.798;10.954;2023-03-13T03:32:52;17.13;;;2.22;;
63693;SDS011;49839;51.798;10.954;2023-03-13T03:35:19;14.20;;;2.47;;
63693;SDS011;49839;51.798;10.954;2023-03-13T03:37:46;17.70;;;2.95;;
63693;SDS011;49839;51.798;10.954;2023-03-13T03:40:14;13.73;;;2.80;;
63693;SDS011;49839;51.798;10.954;2023-03-13T03:42:41;19.05;;;2.88;;
63693;SDS011;49839;51.798;10.954;2023-03-13T03:45:09;13.25;;;2.45;;
63693;SDS011;49839;51.798;10.954;2023-03-13T03:47:37;15.48;;;2.42;;
63693;SDS011;49839;51.798;10.954;2023-03-13T03:50:06;15.10;;;3.03;;
63693;SDS011;49839;51.798;10.954;2023-03-13T03:52:36;12.95;;;2.40;;
63693;SDS011;49839;51.798;10.954;2023-03-13T03:55:04;13.77;;;2.17;;
63693;SDS011;49839;51.798;10.954;2023-03-13T03:57:31;13.88;;;2.88;;
63693;SDS011;49839;51.798;10.954;2023-03-13T03:59:59;17.25;;;3.22;;
63693;SDS011;49839;51.798;10.954;2023-03-13T04:02:26;11.65;;;2.15;;
63693;SDS011;49839;51.798;10.954;2023-03-13T04:04:54;15.98;;;2.75;;
63693;SDS011;49839;51.798;10.954;2023-03-13T04:07:22;18.75;;;3.03;;
63693;SDS011;49839;51.798;10.954;2023-03-13T04:09:50;15.82;;;2.47;;
63693;SDS011;49839;51.798;10.954;2023-03-13T04:12:17;16.20;;;2.60;;
63693;SDS011;49839;51.798;10.954;2023-03-13T04:14:45;13.00;;;2.05;;
63693;SDS011;49839;51.798;10.954;2023-03-13T04:17:12;16.10;;;1.92;;
63693;SDS011;49839;51.798;10.954;2023-03-13T04:19:39;16.15;;;2.65;;
63693;SDS011;49839;51.798;10.954;2023-03-13T04:22:07;14.90;;;2.53;;
63693;SDS011;49839;51.798;10.954;2023-03-13T04:24:36;14.38;;;2.92;;
63693;SDS011;49839;51.798;10.954;2023-03-13T04:27:03;14.02;;;1.98;;
63693;SDS011;49839;51.798;10.954;2023-03-13T04:29:31;11.82;;;2.28;;
63693;SDS011;49839;51.798;10.954;2023-03-13T04:31:59;15.85;;;2.92;;
63693;SDS011;49839;51.798;10.954;2023-03-13T04:34:26;10.88;;;1.83;;
63693;SDS011;49839;51.798;10.954;2023-03-13T04:36:54;16.95;;;3.05;;
63693;SDS011;49839;51.798;10.954;2023-03-13T04:39:21;13.48;;;2.15;;
63693;SDS011;49839;51.798;10.954;2023-03-13T04:41:52;15.35;;;2.95;;
63693;SDS011;49839;51.798;10.954;2023-03-13T04:44:20;12.63;;;2.22;;
63693;SDS011;49839;51.798;10.954;2023-03-13T04:46:48;16.98;;;2.47;;
63693;SDS011;49839;51.798;10.954;2023-03-13T04:49:15;14.98;;;2.60;;
63693;SDS011;49839;51.798;10.954;2023-03-13T04:51:43;12.75;;;2.30;;
63693;SDS011;49839;51.798;10.954;2023-03-13T04:54:11;10.43;;;2.63;;
63693;SDS011;49839;51.798;10.954;2023-03-13T04:56:38;11.27;;;2.72;;
63693;SDS011;49839;51.798;10.954;2023-03-13T04:59:11;14.23;;;2.47;;
63693;SDS011;49839;51.798;10.954;2023-03-13T05:01:38;15.85;;;2.90;;
63693;SDS011;49839;51.798;10.954;2023-03-13T05:04:06;34.42;;;16.92;;
63693;SDS011;49839;51.798;10.954;2023-03-13T05:06:34;54.65;;;24.33;;
63693;SDS011;49839;51.798;10.954;2023-03-13T05:09:01;65.47;;;28.70;;
63693;SDS011;49839;51.798;10.954;2023-03-13T05:11:29;20.45;;;5.07;;
63693;SDS011;49839;51.798;10.954;2023-03-13T05:13:56;11.98;;;3.08;;
63693;SDS011;49839;51.798;10.954;2023-03-13T05:16:25;15.32;;;3.00;;
63693;SDS011;49839;51.798;10.954;2023-03-13T05:18:53;12.35;;;3.08;;
63693;SDS011;49839;51.798;10.954;2023-03-13T05:21:20;12.40;;;2.45;;
63693;SDS011;49839;51.798;10.954;2023-03-13T05:23:47;12.95;;;2.38;;
63693;SDS011;49839;51.798;10.954;2023-03-13T05:26:15;13.25;;;2.22;;
63693;SDS011;49839;51.798;10.954;2023-03-13T05:28:42;7.22;;;2.17;;
63693;SDS011;49839;51.798;10.954;2023-03-13T05:31:10;7.95;;;2.03;;
63693;SDS011;49839;51.798;10.954;2023-03-13T05:33:38;9.55;;;1.70;;
63693;SDS011;49839;51.798;10.954;2023-03-13T05:36:06;8.00;;;1.85;;
63693;SDS011;49839;51.798;10.954;2023-03-13T05:38:34;27.02;;;11.57;;
63693;SDS011;49839;51.798;10.954;2023-03-13T05:41:01;21.17;;;7.93;;
63693;SDS011;49839;51.798;10.954;2023-03-13T05:43:29;21.67;;;9.50;;
63693;SDS011;49839;51.798;10.954;2023-03-13T05:45:56;41.58;;;19.27;;
63693;SDS011;49839;51.798;10.954;2023-03-13T05:48:24;17.02;;;7.55;;
63693;SDS011;49839;51.798;10.954;2023-03-13T05:50:52;13.55;;;6.85;;
63693;SDS011;49839;51.798;10.954;2023-03-13T05:53:20;11.30;;;3.80;;
63693;SDS011;49839;51.798;10.954;2023-03-13T05:55:47;11.57;;;2.45;;
63693;SDS011;49839;51.798;10.954;2023-03-13T05:58:15;11.80;;;2.30;;
63693;SDS011;49839;51.798;10.954;2023-03-13T06:00:42;9.02;;;1.98;;
63693;SDS011;49839;51.798;10.954;2023-03-13T06:03:10;6.93;;;1.50;;
63693;SDS011;49839;51.798;10.954;2023-03-13T06:05:39;12.70;;;2.35;;
63693;SDS011;49839;51.798;10.954;2023-03-13T06:08:08;5.88;;;1.50;;
63693;SDS011;49839;51.798;10.954;2023-03-13T06:10:35;8.82;;;1.80;;
63693;SDS011;49839;51.798;10.954;2023-03-13T06:13:03;6.97;;;1.95;;
63693;SDS011;49839;51.798;10.954;2023-03-13T06:15:49;5.47;;;1.50;;
63693;SDS011;49839;51.798;10.954;2023-03-13T06:18:16;6.55;;;1.10;;
63693;SDS011;49839;51.798;10.954;2023-03-13T06:20:44;5.10;;;1.20;;
63693;SDS011;49839;51.798;10.954;2023-03-13T06:23:13;5.55;;;1.02;;
63693;SDS011;49839;51.798;10.954;2023-03-13T06:25:40;2.63;;;0.60;;
63693;SDS011;49839;51.798;10.954;2023-03-13T06:28:07;1.58;;;0.47;;
63693;SDS011;49839;51.798;10.954;2023-03-13T06:30:35;5.63;;;1.17;;
63693;SDS011;49839;51.798;10.954;2023-03-13T06:33:02;4.75;;;1.00;;
63693;SDS011;49839;51.798;10.954;2023-03-13T06:35:30;4.90;;;0.73;;
63693;SDS011;49839;51.798;10.954;2023-03-13T06:38:04;11.38;;;1.60;;
63693;SDS011;49839;51.798;10.954;2023-03-13T06:40:32;2.83;;;0.73;;
63693;SDS011;49839;51.798;10.954;2023-03-13T06:43:00;4.75;;;1.30;;
63693;SDS011;49839;51.798;10.954;2023-03-13T06:45:27;5.63;;;1.25;;
63693;SDS011;49839;51.798;10.954;2023-03-13T06:47:55;5.72;;;1.20;;
63693;SDS011;49839;51.798;10.954;2023-03-13T06:50:22;5.32;;;0.95;;
63693;SDS011;49839;51.798;10.954;2023-03-13T06:52:50;3.10;;;0.82;;
63693;SDS011;49839;51.798;10.954;2023-03-13T06:55:18;2.38;;;0.60;;
63693;SDS011;49839;51.798;10.954;2023-03-13T06:57:49;3.10;;;0.80;;
63693;SDS011;49839;51.798;10.954;2023-03-13T07:00:17;6.53;;;1.58;;
63693;SDS011;49839;51.798;10.954;2023-03-13T07:02:45;4.38;;;1.20;;
63693;SDS011;49839;51.798;10.954;2023-03-13T07:05:13;5.05;;;1.10;;
63693;SDS011;49839;51.798;10.954;2023-03-13T07:07:40;4.72;;;1.85;;
63693;SDS011;49839;51.798;10.954;2023-03-13T07:10:08;4.53;;;1.48;;
63693;SDS011;49839;51.798;10.954;2023-03-13T07:12:36;5.80;;;1.58;;
63693;SDS011;49839;51.798;10.954;2023-03-13T07:15:06;4.60;;;2.22;;
63693;SDS011;49839;51.798;10.954;2023-03-13T07:17:33;3.53;;;1.10;;
63693;SDS011;49839;51.798;10.954;2023-03-13T07:20:01;5.07;;;1.20;;
63693;SDS011;49839;51.798;10.954;2023-03-13T07:22:29;2.70;;;0.93;;
63693;SDS011;49839;51.798;10.954;2023-03-13T07:24:56;5.57;;;1.52;;
63693;SDS011;49839;51.798;10.954;2023-03-13T07:27:24;4.13;;;1.10;;
63693;SDS011;49839;51.798;10.954;2023-03-13T07:29:51;7.10;;;3.65;;
63693;SDS011;49839;51.798;10.954;2023-03-13T07:32:20;5.35;;;2.15;;
63693;SDS011;49839;51.798;10.954;2023-03-13T07:34:47;7.68;;;2.00;;
63693;SDS011;49839;51.798;10.954;2023-03-13T07:37:15;2.42;;;1.00;;
63693;SDS011;49839;51.798;10.954;2023-03-13T07:39:43;4.93;;;1.10;;
63693;SDS011;49839;51.798;10.954;2023-03-13T07:42:10;2.85;;;0.90;;
63693;SDS011;49839;51.798;10.954;2023-03-13T07:44:37;2.22;;;0.90;;
63693;SDS011;49839;51.798;10.954;2023-03-13T07:47:05;3.75;;;0.88;;
63693;SDS011;49839;51.798;10.954;2023-03-13T07:49:34;4.95;;;1.42;;
63693;SDS011;49839;51.798;10.954;2023-03-13T07:52:06;2.97;;;1.00;;
63693;SDS011;49839;51.798;10.954;2023-03-13T07:54:33;3.13;;;0.75;;
63693;SDS011;49839;51.798;10.954;2023-03-13T07:57:01;1.80;;;0.80;;
63693;SDS011;49839;51.798;10.954;2023-03-13T07:59:28;4.15;;;1.00;;
63693;SDS011;49839;51.798;10.954;2023-03-13T08:01:56;6.68;;;3.08;;
63693;SDS011;49839;51.798;10.954;2023-03-13T08:04:23;5.50;;;2.20;;
63693;SDS011;49839;51.798;10.954;2023-03-13T08:06:52;4.70;;;2.85;;
63693;SDS011;49839;51.798;10.954;2023-03-13T08:09:20;4.50;;;1.65;;
63693;SDS011;49839;51.798;10.954;2023-03-13T08:11:48;4.28;;;1.30;;
63693;SDS011;49839;51.798;10.954;2023-03-13T08:14:15;3.83;;;0.70;;
63693;SDS011;49839;51.798;10.954;2023-03-13T08:16:42;3.25;;;0.95;;
63693;SDS011;49839;51.798;10.954;2023-03-13T08:19:10;3.22;;;0.75;;
63693;SDS011;49839;51.798;10.954;2023-03-13T08:21:38;4.65;;;0.82;;
63693;SDS011;49839;51.798;10.954;2023-03-13T08:24:07;2.97;;;1.02;;
63693;SDS011;49839;51.798;10.954;2023-03-13T08:26:38;4.00;;;1.10;;
63693;SDS011;49839;51.798;10.954;2023-03-13T08:29:07;4.18;;;1.25;;
63693;SDS011;49839;51.798;10.954;2023-03-13T08:31:36;3.65;;;0.90;;
63693;SDS011;49839;51.798;10.954;2023-03-13T08:34:03;3.00;;;1.30;;
63693;SDS011;49839;51.798;10.954;2023-03-13T08:36:32;3.22;;;1.00;;
63693;SDS011;49839;51.798;10.954;2023-03-13T08:39:00;2.75;;;0.82;;
63693;SDS011;49839;51.798;10.954;2023-03-13T08:41:30;3.55;;;1.42;;
63693;SDS011;49839;51.798;10.954;2023-03-13T08:43:59;2.20;;;0.95;;
63693;SDS011;49839;51.798;10.954;2023-03-13T08:46:27;2.70;;;0.65;;
63693;SDS011;49839;51.798;10.954;2023-03-13T08:48:55;4.90;;;1.03;;
63693;SDS011;49839;51.798;10.954;2023-03-13T08:51:23;2.30;;;0.65;;
63693;SDS011;49839;51.798;10.954;2023-03-13T08:53:51;1.75;;;0.80;;
63693;SDS011;49839;51.798;10.954;2023-03-13T08:56:20;1.77;;;0.70;;
63693;SDS011;49839;51.798;10.954;2023-03-13T08:58:49;3.38;;;0.90;;
63693;SDS011;49839;51.798;10.954;2023-03-13T09:01:17;2.83;;;0.90;;
63693;SDS011;49839;51.798;10.954;2023-03-13T09:03:44;2.67;;;0.90;;
63693;SDS011;49839;51.798;10.954;2023-03-13T09:06:12;2.00;;;0.90;;
63693;SDS011;49839;51.798;10.954;2023-03-13T09:08:40;2.90;;;0.85;;
63693;SDS011;49839;51.798;10.954;2023-03-13T09:11:08;1.15;;;0.50;;
63693;SDS011;49839;51.798;10.954;2023-03-13T09:13:37;6.10;;;2.90;;
63693;SDS011;49839;51.798;10.954;2023-03-13T09:16:06;3.33;;;1.00;;
63693;SDS011;49839;51.798;10.954;2023-03-13T09:18:34;3.15;;;0.90;;
63693;SDS011;49839;51.798;10.954;2023-03-13T09:21:02;2.53;;;0.65;;
